Sodak Park, South Dakota
Current Conditions -  °F | °C
As of 1:53 PM on Sunday 23 Nov 2014 (Local Time) from KVVV Reporting Station
Clear Clear  
Wind Chill: 30°   Ceiling: Unl
Heat Index: 39°   Visibility: 10mi
Dew Point: 28°   Wind: 16mph
Humidity: 65%   Direction: 300°WNW
Pressure: 29.46"   Gusts: 21mph
Location:  45.4152°N, 96.8664°W
Report Text: KVVV 231953Z AUTO 30014G18KT 10SM CLR 04/M02 A2946 RMK AO2
Loading
Personal Weather Stations






























Interactive Weather Map New forecast layout! Learn more

10-Day Weather Forecast

Advertisements
Track Severe Weather on mobile